sensor_id;sensor_type;location;lat;lon;timestamp;P1;durP1;ratioP1;P2;durP2;ratioP2
61962;SDS011;47927;42.646;23.096;2022-12-18T00:01:23;3.63;;;1.83;;
61962;SDS011;47927;42.646;23.096;2022-12-18T00:03:51;3.15;;;1.85;;
61962;SDS011;47927;42.646;23.096;2022-12-18T00:06:18;4.55;;;2.20;;
61962;SDS011;47927;42.646;23.096;2022-12-18T00:08:44;3.53;;;1.95;;
61962;SDS011;47927;42.646;23.096;2022-12-18T00:11:12;4.25;;;2.00;;
61962;SDS011;47927;42.646;23.096;2022-12-18T00:13:42;4.82;;;2.33;;
61962;SDS011;47927;42.646;23.096;2022-12-18T00:16:09;4.93;;;2.42;;
61962;SDS011;47927;42.646;23.096;2022-12-18T00:18:36;5.10;;;2.65;;
61962;SDS011;47927;42.646;23.096;2022-12-18T00:21:02;3.85;;;2.17;;
61962;SDS011;47927;42.646;23.096;2022-12-18T00:23:48;5.18;;;2.60;;
61962;SDS011;47927;42.646;23.096;2022-12-18T00:26:15;4.65;;;2.60;;
61962;SDS011;47927;42.646;23.096;2022-12-18T00:28:43;3.85;;;2.20;;
61962;SDS011;47927;42.646;23.096;2022-12-18T00:31:10;4.55;;;2.15;;
61962;SDS011;47927;42.646;23.096;2022-12-18T00:33:38;5.00;;;2.60;;
61962;SDS011;47927;42.646;23.096;2022-12-18T00:36:11;7.28;;;3.03;;
61962;SDS011;47927;42.646;23.096;2022-12-18T00:38:40;5.00;;;2.53;;
61962;SDS011;47927;42.646;23.096;2022-12-18T00:41:06;4.63;;;2.63;;
61962;SDS011;47927;42.646;23.096;2022-12-18T00:43:35;4.32;;;2.60;;
61962;SDS011;47927;42.646;23.096;2022-12-18T00:46:01;6.80;;;2.53;;
61962;SDS011;47927;42.646;23.096;2022-12-18T00:48:27;4.97;;;2.80;;
61962;SDS011;47927;42.646;23.096;2022-12-18T00:50:53;4.88;;;2.47;;
61962;SDS011;47927;42.646;23.096;2022-12-18T00:53:18;3.75;;;2.08;;
61962;SDS011;47927;42.646;23.096;2022-12-18T00:55:44;7.70;;;2.85;;
61962;SDS011;47927;42.646;23.096;2022-12-18T00:58:11;4.72;;;2.42;;
61962;SDS011;47927;42.646;23.096;2022-12-18T01:00:39;4.65;;;2.53;;
61962;SDS011;47927;42.646;23.096;2022-12-18T01:03:04;4.63;;;2.35;;
61962;SDS011;47927;42.646;23.096;2022-12-18T01:05:30;6.20;;;2.22;;
61962;SDS011;47927;42.646;23.096;2022-12-18T01:07:56;4.10;;;2.13;;
61962;SDS011;47927;42.646;23.096;2022-12-18T01:10:22;4.68;;;2.40;;
61962;SDS011;47927;42.646;23.096;2022-12-18T01:12:49;5.40;;;2.65;;
61962;SDS011;47927;42.646;23.096;2022-12-18T01:15:17;5.07;;;2.40;;
61962;SDS011;47927;42.646;23.096;2022-12-18T01:17:43;4.80;;;2.70;;
61962;SDS011;47927;42.646;23.096;2022-12-18T01:20:10;5.57;;;2.88;;
61962;SDS011;47927;42.646;23.096;2022-12-18T01:22:37;5.60;;;2.97;;
61962;SDS011;47927;42.646;23.096;2022-12-18T01:25:03;4.18;;;2.30;;
61962;SDS011;47927;42.646;23.096;2022-12-18T01:27:30;10.60;;;3.17;;
61962;SDS011;47927;42.646;23.096;2022-12-18T01:29:55;5.20;;;2.90;;
61962;SDS011;47927;42.646;23.096;2022-12-18T01:32:21;6.28;;;2.80;;
61962;SDS011;47927;42.646;23.096;2022-12-18T01:34:48;7.03;;;2.92;;
61962;SDS011;47927;42.646;23.096;2022-12-18T01:37:14;4.50;;;2.38;;
61962;SDS011;47927;42.646;23.096;2022-12-18T01:39:40;5.22;;;2.50;;
61962;SDS011;47927;42.646;23.096;2022-12-18T01:42:14;7.63;;;3.25;;
61962;SDS011;47927;42.646;23.096;2022-12-18T01:50:42;4.75;;;2.30;;
61962;SDS011;47927;42.646;23.096;2022-12-18T01:53:19;5.78;;;2.40;;
61962;SDS011;47927;42.646;23.096;2022-12-18T01:55:48;5.28;;;2.97;;
61962;SDS011;47927;42.646;23.096;2022-12-18T01:58:16;5.35;;;2.40;;
61962;SDS011;47927;42.646;23.096;2022-12-18T02:00:43;5.03;;;2.53;;
61962;SDS011;47927;42.646;23.096;2022-12-18T02:03:09;4.95;;;2.40;;
61962;SDS011;47927;42.646;23.096;2022-12-18T02:08:23;3.63;;;2.03;;
61962;SDS011;47927;42.646;23.096;2022-12-18T02:13:46;5.00;;;2.20;;
61962;SDS011;47927;42.646;23.096;2022-12-18T02:18:57;5.80;;;2.97;;
61962;SDS011;47927;42.646;23.096;2022-12-18T02:27:15;4.07;;;2.20;;
61962;SDS011;47927;42.646;23.096;2022-12-18T02:29:44;4.72;;;2.58;;
61962;SDS011;47927;42.646;23.096;2022-12-18T02:32:17;4.35;;;1.90;;
61962;SDS011;47927;42.646;23.096;2022-12-18T02:34:51;5.28;;;2.47;;
61962;SDS011;47927;42.646;23.096;2022-12-18T02:37:20;5.28;;;2.45;;
61962;SDS011;47927;42.646;23.096;2022-12-18T02:39:48;4.72;;;2.58;;
61962;SDS011;47927;42.646;23.096;2022-12-18T02:42:16;5.03;;;2.53;;
61962;SDS011;47927;42.646;23.096;2022-12-18T02:44:44;4.97;;;2.88;;
61962;SDS011;47927;42.646;23.096;2022-12-18T02:47:14;6.90;;;3.28;;
61962;SDS011;47927;42.646;23.096;2022-12-18T02:52:20;4.68;;;2.40;;
61962;SDS011;47927;42.646;23.096;2022-12-18T03:00:28;6.13;;;2.60;;
61962;SDS011;47927;42.646;23.096;2022-12-18T03:05:44;4.75;;;2.38;;
61962;SDS011;47927;42.646;23.096;2022-12-18T03:08:13;3.97;;;2.42;;
61962;SDS011;47927;42.646;23.096;2022-12-18T03:10:45;4.55;;;2.08;;
61962;SDS011;47927;42.646;23.096;2022-12-18T03:13:20;4.95;;;2.80;;
61962;SDS011;47927;42.646;23.096;2022-12-18T03:15:54;4.32;;;2.47;;
61962;SDS011;47927;42.646;23.096;2022-12-18T03:18:25;5.18;;;3.00;;
61962;SDS011;47927;42.646;23.096;2022-12-18T03:20:56;4.03;;;2.25;;
61962;SDS011;47927;42.646;23.096;2022-12-18T03:23:26;5.30;;;2.60;;
61962;SDS011;47927;42.646;23.096;2022-12-18T03:25:56;5.20;;;2.63;;
61962;SDS011;47927;42.646;23.096;2022-12-18T03:28:25;4.22;;;2.60;;
61962;SDS011;47927;42.646;23.096;2022-12-18T03:31:13;6.68;;;2.80;;
61962;SDS011;47927;42.646;23.096;2022-12-18T03:36:13;6.35;;;3.30;;
61962;SDS011;47927;42.646;23.096;2022-12-18T03:38:39;9.32;;;2.72;;
61962;SDS011;47927;42.646;23.096;2022-12-18T03:49:29;6.22;;;3.08;;
61962;SDS011;47927;42.646;23.096;2022-12-18T03:54:39;4.85;;;2.60;;
61962;SDS011;47927;42.646;23.096;2022-12-18T03:57:16;6.38;;;3.00;;
61962;SDS011;47927;42.646;23.096;2022-12-18T03:59:47;6.78;;;3.10;;
61962;SDS011;47927;42.646;23.096;2022-12-18T04:02:19;5.45;;;3.22;;
61962;SDS011;47927;42.646;23.096;2022-12-18T04:04:48;6.20;;;3.00;;
61962;SDS011;47927;42.646;23.096;2022-12-18T04:07:18;6.18;;;3.38;;
61962;SDS011;47927;42.646;23.096;2022-12-18T04:09:47;6.47;;;3.30;;
61962;SDS011;47927;42.646;23.096;2022-12-18T04:12:17;5.75;;;3.10;;
61962;SDS011;47927;42.646;23.096;2022-12-18T04:14:44;5.97;;;3.22;;
61962;SDS011;47927;42.646;23.096;2022-12-18T04:17:10;7.07;;;3.75;;
61962;SDS011;47927;42.646;23.096;2022-12-18T04:19:35;8.07;;;4.45;;
61962;SDS011;47927;42.646;23.096;2022-12-18T04:22:02;5.35;;;3.13;;
61962;SDS011;47927;42.646;23.096;2022-12-18T04:24:32;5.85;;;3.13;;
61962;SDS011;47927;42.646;23.096;2022-12-18T04:27:07;8.00;;;3.85;;
61962;SDS011;47927;42.646;23.096;2022-12-18T04:29:51;8.20;;;3.90;;
61962;SDS011;47927;42.646;23.096;2022-12-18T04:32:17;7.25;;;3.78;;
61962;SDS011;47927;42.646;23.096;2022-12-18T04:34:43;6.75;;;3.85;;
61962;SDS011;47927;42.646;23.096;2022-12-18T04:37:09;6.72;;;3.58;;
61962;SDS011;47927;42.646;23.096;2022-12-18T04:39:35;7.53;;;3.47;;
61962;SDS011;47927;42.646;23.096;2022-12-18T04:42:06;7.95;;;4.35;;
61962;SDS011;47927;42.646;23.096;2022-12-18T04:44:32;8.27;;;3.50;;
61962;SDS011;47927;42.646;23.096;2022-12-18T04:46:58;6.43;;;3.60;;
61962;SDS011;47927;42.646;23.096;2022-12-18T04:49:24;8.75;;;4.60;;
61962;SDS011;47927;42.646;23.096;2022-12-18T04:51:49;8.88;;;3.97;;
61962;SDS011;47927;42.646;23.096;2022-12-18T04:54:15;7.57;;;4.25;;
61962;SDS011;47927;42.646;23.096;2022-12-18T04:56:40;7.55;;;4.15;;
61962;SDS011;47927;42.646;23.096;2022-12-18T04:59:06;8.70;;;4.70;;
61962;SDS011;47927;42.646;23.096;2022-12-18T05:01:31;8.43;;;4.20;;
61962;SDS011;47927;42.646;23.096;2022-12-18T05:03:57;7.78;;;3.97;;
61962;SDS011;47927;42.646;23.096;2022-12-18T05:06:22;7.15;;;3.50;;
61962;SDS011;47927;42.646;23.096;2022-12-18T05:08:48;8.40;;;4.15;;
61962;SDS011;47927;42.646;23.096;2022-12-18T05:11:14;6.50;;;3.50;;
61962;SDS011;47927;42.646;23.096;2022-12-18T05:13:41;5.93;;;3.40;;
61962;SDS011;47927;42.646;23.096;2022-12-18T05:16:07;7.85;;;3.63;;
61962;SDS011;47927;42.646;23.096;2022-12-18T05:18:33;8.45;;;4.32;;
61962;SDS011;47927;42.646;23.096;2022-12-18T05:20:59;7.53;;;4.10;;
61962;SDS011;47927;42.646;23.096;2022-12-18T05:23:25;7.95;;;3.95;;
61962;SDS011;47927;42.646;23.096;2022-12-18T05:25:55;8.20;;;4.50;;
61962;SDS011;47927;42.646;23.096;2022-12-18T05:28:26;10.30;;;4.45;;
61962;SDS011;47927;42.646;23.096;2022-12-18T05:30:53;7.57;;;3.70;;
61962;SDS011;47927;42.646;23.096;2022-12-18T05:33:21;8.55;;;4.63;;
61962;SDS011;47927;42.646;23.096;2022-12-18T05:35:51;10.15;;;5.13;;
61962;SDS011;47927;42.646;23.096;2022-12-18T05:38:18;7.57;;;4.18;;
61962;SDS011;47927;42.646;23.096;2022-12-18T05:40:44;7.28;;;4.07;;
61962;SDS011;47927;42.646;23.096;2022-12-18T05:43:10;10.40;;;4.95;;
61962;SDS011;47927;42.646;23.096;2022-12-18T05:45:36;9.00;;;4.50;;
61962;SDS011;47927;42.646;23.096;2022-12-18T05:48:03;9.52;;;5.50;;
61962;SDS011;47927;42.646;23.096;2022-12-18T05:50:29;10.57;;;5.70;;
61962;SDS011;47927;42.646;23.096;2022-12-18T05:53:00;9.73;;;5.25;;
61962;SDS011;47927;42.646;23.096;2022-12-18T05:55:25;10.20;;;5.30;;
61962;SDS011;47927;42.646;23.096;2022-12-18T05:57:51;11.38;;;5.75;;
61962;SDS011;47927;42.646;23.096;2022-12-18T06:00:16;10.50;;;6.03;;
61962;SDS011;47927;42.646;23.096;2022-12-18T06:02:42;13.98;;;6.78;;
61962;SDS011;47927;42.646;23.096;2022-12-18T06:05:12;12.02;;;5.95;;
61962;SDS011;47927;42.646;23.096;2022-12-18T06:07:37;11.05;;;5.57;;
61962;SDS011;47927;42.646;23.096;2022-12-18T06:10:03;10.93;;;6.10;;
61962;SDS011;47927;42.646;23.096;2022-12-18T06:12:28;12.05;;;5.80;;
61962;SDS011;47927;42.646;23.096;2022-12-18T06:14:54;12.90;;;6.70;;
61962;SDS011;47927;42.646;23.096;2022-12-18T06:17:19;12.80;;;6.38;;
61962;SDS011;47927;42.646;23.096;2022-12-18T06:19:45;11.65;;;6.30;;
61962;SDS011;47927;42.646;23.096;2022-12-18T06:22:11;14.25;;;7.07;;
61962;SDS011;47927;42.646;23.096;2022-12-18T06:24:36;10.75;;;5.43;;
61962;SDS011;47927;42.646;23.096;2022-12-18T06:27:01;12.07;;;6.03;;
61962;SDS011;47927;42.646;23.096;2022-12-18T06:29:27;13.93;;;5.55;;
61962;SDS011;47927;42.646;23.096;2022-12-18T06:31:53;14.80;;;6.57;;
61962;SDS011;47927;42.646;23.096;2022-12-18T06:34:18;8.73;;;4.90;;
61962;SDS011;47927;42.646;23.096;2022-12-18T06:36:44;12.95;;;6.60;;
61962;SDS011;47927;42.646;23.096;2022-12-18T06:39:09;11.75;;;5.93;;
61962;SDS011;47927;42.646;23.096;2022-12-18T06:41:36;11.20;;;5.88;;
61962;SDS011;47927;42.646;23.096;2022-12-18T06:44:01;12.10;;;6.50;;
61962;SDS011;47927;42.646;23.096;2022-12-18T06:46:27;11.75;;;6.60;;
61962;SDS011;47927;42.646;23.096;2022-12-18T06:48:52;14.18;;;6.50;;
61962;SDS011;47927;42.646;23.096;2022-12-18T06:51:19;12.57;;;6.78;;
61962;SDS011;47927;42.646;23.096;2022-12-18T06:53:46;14.63;;;6.75;;
61962;SDS011;47927;42.646;23.096;2022-12-18T06:56:12;13.43;;;7.65;;
61962;SDS011;47927;42.646;23.096;2022-12-18T06:58:38;17.77;;;7.15;;
61962;SDS011;47927;42.646;23.096;2022-12-18T07:01:05;11.30;;;6.50;;
61962;SDS011;47927;42.646;23.096;2022-12-18T07:03:31;12.65;;;6.03;;
61962;SDS011;47927;42.646;23.096;2022-12-18T07:05:57;11.57;;;6.13;;
61962;SDS011;47927;42.646;23.096;2022-12-18T07:08:23;13.02;;;7.70;;
61962;SDS011;47927;42.646;23.096;2022-12-18T07:10:48;14.90;;;7.68;;
61962;SDS011;47927;42.646;23.096;2022-12-18T07:13:18;12.80;;;6.22;;
61962;SDS011;47927;42.646;23.096;2022-12-18T07:15:43;11.23;;;5.88;;
61962;SDS011;47927;42.646;23.096;2022-12-18T07:18:09;11.23;;;5.90;;
61962;SDS011;47927;42.646;23.096;2022-12-18T07:20:35;10.77;;;5.60;;
61962;SDS011;47927;42.646;23.096;2022-12-18T07:23:02;9.68;;;5.38;;
61962;SDS011;47927;42.646;23.096;2022-12-18T07:25:28;9.40;;;5.15;;
61962;SDS011;47927;42.646;23.096;2022-12-18T07:27:53;9.35;;;5.38;;
61962;SDS011;47927;42.646;23.096;2022-12-18T07:30:19;11.07;;;6.32;;
61962;SDS011;47927;42.646;23.096;2022-12-18T07:32:45;14.05;;;9.10;;
61962;SDS011;47927;42.646;23.096;2022-12-18T07:35:10;11.30;;;6.30;;
61962;SDS011;47927;42.646;23.096;2022-12-18T07:37:36;15.55;;;9.45;;
61962;SDS011;47927;42.646;23.096;2022-12-18T07:40:01;10.43;;;5.57;;
61962;SDS011;47927;42.646;23.096;2022-12-18T07:42:27;14.68;;;6.68;;
61962;SDS011;47927;42.646;23.096;2022-12-18T07:44:56;13.35;;;5.97;;
61962;SDS011;47927;42.646;23.096;2022-12-18T07:47:21;10.05;;;5.90;;
61962;SDS011;47927;42.646;23.096;2022-12-18T07:49:47;9.30;;;4.93;;
61962;SDS011;47927;42.646;23.096;2022-12-18T07:52:13;9.82;;;5.80;;
61962;SDS011;47927;42.646;23.096;2022-12-18T07:54:38;11.18;;;5.03;;
61962;SDS011;47927;42.646;23.096;2022-12-18T07:57:05;10.50;;;5.45;;
61962;SDS011;47927;42.646;23.096;2022-12-18T07:59:31;10.05;;;4.72;;
61962;SDS011;47927;42.646;23.096;2022-12-18T08:01:57;9.00;;;5.10;;
61962;SDS011;47927;42.646;23.096;2022-12-18T08:04:22;10.40;;;5.45;;
61962;SDS011;47927;42.646;23.096;2022-12-18T08:06:48;13.15;;;6.15;;
61962;SDS011;47927;42.646;23.096;2022-12-18T08:09:13;9.95;;;5.47;;
61962;SDS011;47927;42.646;23.096;2022-12-18T08:11:39;9.52;;;5.68;;
61962;SDS011;47927;42.646;23.096;2022-12-18T08:14:04;12.25;;;5.68;;
61962;SDS011;47927;42.646;23.096;2022-12-18T08:16:30;10.25;;;5.80;;
61962;SDS011;47927;42.646;23.096;2022-12-18T08:18:55;12.55;;;6.18;;
61962;SDS011;47927;42.646;23.096;2022-12-18T08:21:22;11.38;;;6.43;;
61962;SDS011;47927;42.646;23.096;2022-12-18T08:23:51;11.02;;;6.00;;
61962;SDS011;47927;42.646;23.096;2022-12-18T08:26:17;14.95;;;7.47;;
61962;SDS011;47927;42.646;23.096;2022-12-18T08:28:43;13.10;;;6.88;;
61962;SDS011;47927;42.646;23.096;2022-12-18T08:31:09;15.45;;;7.38;;
61962;SDS011;47927;42.646;23.096;2022-12-18T08:33:35;12.90;;;7.05;;
61962;SDS011;47927;42.646;23.096;2022-12-18T08:36:03;10.05;;;5.90;;
61962;SDS011;47927;42.646;23.096;2022-12-18T08:38:29;14.55;;;7.97;;
61962;SDS011;47927;42.646;23.096;2022-12-18T08:41:13;12.82;;;6.45;;
61962;SDS011;47927;42.646;23.096;2022-12-18T08:43:40;11.38;;;6.85;;
61962;SDS011;47927;42.646;23.096;2022-12-18T08:46:26;16.02;;;7.13;;
61962;SDS011;47927;42.646;23.096;2022-12-18T08:48:56;10.00;;;5.90;;
61962;SDS011;47927;42.646;23.096;2022-12-18T08:51:21;12.68;;;7.55;;
61962;SDS011;47927;42.646;23.096;2022-12-18T08:53:47;12.45;;;6.63;;
61962;SDS011;47927;42.646;23.096;2022-12-18T08:56:13;12.85;;;6.88;;
61962;SDS011;47927;42.646;23.096;2022-12-18T08:58:39;13.85;;;6.78;;
61962;SDS011;47927;42.646;23.096;2022-12-18T09:01:06;12.93;;;6.15;;
61962;SDS011;47927;42.646;23.096;2022-12-18T09:03:37;11.30;;;6.50;;
61962;SDS011;47927;42.646;23.096;2022-12-18T09:06:03;12.00;;;6.22;;
61962;SDS011;47927;42.646;23.096;2022-12-18T09:08:29;13.50;;;6.85;;
61962;SDS011;47927;42.646;23.096;2022-12-18T09:10:55;12.73;;;6.82;;
61962;SDS011;47927;42.646;23.096;2022-12-18T09:13:21;14.93;;;6.95;;
61962;SDS011;47927;42.646;23.096;2022-12-18T09:15:48;12.32;;;7.05;;
61962;SDS011;47927;42.646;23.096;2022-12-18T09:18:19;11.57;;;5.97;;
61962;SDS011;47927;42.646;23.096;2022-12-18T09:20:45;12.70;;;6.60;;
61962;SDS011;47927;42.646;23.096;2022-12-18T09:23:11;12.35;;;6.00;;
61962;SDS011;47927;42.646;23.096;2022-12-18T09:25:38;12.48;;;6.80;;
61962;SDS011;47927;42.646;23.096;2022-12-18T09:28:11;14.57;;;6.03;;
61962;SDS011;47927;42.646;23.096;2022-12-18T09:30:39;13.32;;;6.82;;
61962;SDS011;47927;42.646;23.096;2022-12-18T09:33:05;11.77;;;6.57;;
61962;SDS011;47927;42.646;23.096;2022-12-18T09:35:31;15.23;;;6.35;;
61962;SDS011;47927;42.646;23.096;2022-12-18T09:37:56;13.07;;;6.50;;
61962;SDS011;47927;42.646;23.096;2022-12-18T09:40:23;11.15;;;5.93;;
61962;SDS011;47927;42.646;23.096;2022-12-18T09:42:56;10.95;;;5.57;;
61962;SDS011;47927;42.646;23.096;2022-12-18T09:45:24;12.43;;;6.82;;
61962;SDS011;47927;42.646;23.096;2022-12-18T09:47:50;10.93;;;6.22;;
61962;SDS011;47927;42.646;23.096;2022-12-18T09:50:32;10.77;;;6.18;;
61962;SDS011;47927;42.646;23.096;2022-12-18T09:53:05;11.55;;;6.32;;
61962;SDS011;47927;42.646;23.096;2022-12-18T09:55:37;11.95;;;6.80;;
61962;SDS011;47927;42.646;23.096;2022-12-18T09:58:07;11.73;;;6.50;;
61962;SDS011;47927;42.646;23.096;2022-12-18T10:00:41;14.43;;;7.13;;
61962;SDS011;47927;42.646;23.096;2022-12-18T10:03:10;10.60;;;5.85;;
61962;SDS011;47927;42.646;23.096;2022-12-18T10:06:12;11.82;;;6.47;;
61962;SDS011;47927;42.646;23.096;2022-12-18T10:20:13;12.23;;;6.77;;
61962;SDS011;47927;42.646;23.096;2022-12-18T10:28:00;11.70;;;6.35;;
61962;SDS011;47927;42.646;23.096;2022-12-18T10:30:34;8.82;;;5.57;;
61962;SDS011;47927;42.646;23.096;2022-12-18T10:33:01;14.20;;;6.20;;
61962;SDS011;47927;42.646;23.096;2022-12-18T10:35:27;10.40;;;5.55;;
61962;SDS011;47927;42.646;23.096;2022-12-18T10:38:03;11.98;;;6.35;;
61962;SDS011;47927;42.646;23.096;2022-12-18T10:40:31;9.52;;;5.35;;
61962;SDS011;47927;42.646;23.096;2022-12-18T10:43:12;10.30;;;4.95;;
61962;SDS011;47927;42.646;23.096;2022-12-18T10:45:40;13.30;;;6.30;;
61962;SDS011;47927;42.646;23.096;2022-12-18T10:48:19;14.90;;;6.93;;
61962;SDS011;47927;42.646;23.096;2022-12-18T10:50:47;11.55;;;6.47;;
61962;SDS011;47927;42.646;23.096;2022-12-18T10:53:21;10.77;;;5.05;;
61962;SDS011;47927;42.646;23.096;2022-12-18T10:55:50;11.85;;;6.35;;
61962;SDS011;47927;42.646;23.096;2022-12-18T11:06:05;12.10;;;5.82;;
61962;SDS011;47927;42.646;23.096;2022-12-18T11:11:48;11.10;;;5.70;;
61962;SDS011;47927;42.646;23.096;2022-12-18T11:14:21;13.40;;;5.68;;
61962;SDS011;47927;42.646;23.096;2022-12-18T11:16:47;13.70;;;6.13;;
61962;SDS011;47927;42.646;23.096;2022-12-18T11:19:27;9.88;;;5.38;;
61962;SDS011;47927;42.646;23.096;2022-12-18T11:21:53;14.38;;;6.40;;
61962;SDS011;47927;42.646;23.096;2022-12-18T11:24:25;10.68;;;5.50;;
61962;SDS011;47927;42.646;23.096;2022-12-18T11:27:03;13.82;;;6.72;;
61962;SDS011;47927;42.646;23.096;2022-12-18T11:29:37;14.30;;;6.18;;
61962;SDS011;47927;42.646;23.096;2022-12-18T11:34:52;10.32;;;4.93;;
61962;SDS011;47927;42.646;23.096;2022-12-18T11:37:44;9.45;;;5.03;;
61962;SDS011;47927;42.646;23.096;2022-12-18T11:40:17;15.07;;;6.95;;
61962;SDS011;47927;42.646;23.096;2022-12-18T11:45:32;10.27;;;5.10;;
61962;SDS011;47927;42.646;23.096;2022-12-18T11:48:04;11.07;;;5.78;;
61962;SDS011;47927;42.646;23.096;2022-12-18T11:50:52;13.10;;;5.97;;
61962;SDS011;47927;42.646;23.096;2022-12-18T11:58:20;12.32;;;5.13;;
61962;SDS011;47927;42.646;23.096;2022-12-18T12:18:17;11.27;;;5.38;;
61962;SDS011;47927;42.646;23.096;2022-12-18T12:26:52;9.80;;;4.95;;
61962;SDS011;47927;42.646;23.096;2022-12-18T12:35:03;11.43;;;5.55;;
61962;SDS011;47927;42.646;23.096;2022-12-18T12:37:51;10.50;;;5.72;;
61962;SDS011;47927;42.646;23.096;2022-12-18T12:40:30;10.38;;;5.15;;
61962;SDS011;47927;42.646;23.096;2022-12-18T12:43:01;11.57;;;5.43;;
61962;SDS011;47927;42.646;23.096;2022-12-18T12:45:52;8.70;;;5.18;;
61962;SDS011;47927;42.646;23.096;2022-12-18T12:53:52;11.25;;;5.50;;
61962;SDS011;47927;42.646;23.096;2022-12-18T12:56:20;12.18;;;5.85;;
61962;SDS011;47927;42.646;23.096;2022-12-18T13:02:21;12.38;;;5.65;;
61962;SDS011;47927;42.646;23.096;2022-12-18T13:07:32;13.20;;;4.82;;
61962;SDS011;47927;42.646;23.096;2022-12-18T13:10:26;10.20;;;4.72;;
61962;SDS011;47927;42.646;23.096;2022-12-18T13:15:21;10.68;;;5.93;;
61962;SDS011;47927;42.646;23.096;2022-12-18T13:17:59;10.30;;;4.50;;
61962;SDS011;47927;42.646;23.096;2022-12-18T13:20:36;10.80;;;5.00;;
61962;SDS011;47927;42.646;23.096;2022-12-18T13:28:23;11.30;;;5.60;;
61962;SDS011;47927;42.646;23.096;2022-12-18T13:31:14;10.60;;;5.68;;
61962;SDS011;47927;42.646;23.096;2022-12-18T13:36:48;13.23;;;6.60;;
61962;SDS011;47927;42.646;23.096;2022-12-18T13:41:40;12.00;;;6.40;;
61962;SDS011;47927;42.646;23.096;2022-12-18T13:44:10;10.80;;;5.38;;
61962;SDS011;47927;42.646;23.096;2022-12-18T13:51:41;10.18;;;5.63;;
61962;SDS011;47927;42.646;23.096;2022-12-18T13:57:04;13.00;;;6.35;;
61962;SDS011;47927;42.646;23.096;2022-12-18T13:59:48;10.52;;;5.63;;
61962;SDS011;47927;42.646;23.096;2022-12-18T14:04:44;9.75;;;5.18;;
61962;SDS011;47927;42.646;23.096;2022-12-18T14:07:12;10.85;;;5.15;;
61962;SDS011;47927;42.646;23.096;2022-12-18T14:10:01;9.43;;;5.35;;
61962;SDS011;47927;42.646;23.096;2022-12-18T14:12:27;9.82;;;4.90;;
61962;SDS011;47927;42.646;23.096;2022-12-18T14:18:00;13.52;;;5.10;;
61962;SDS011;47927;42.646;23.096;2022-12-18T14:20:28;11.40;;;5.82;;
61962;SDS011;47927;42.646;23.096;2022-12-18T14:22:56;10.77;;;5.28;;
61962;SDS011;47927;42.646;23.096;2022-12-18T14:25:25;8.95;;;4.43;;
61962;SDS011;47927;42.646;23.096;2022-12-18T14:30:36;13.75;;;6.43;;
61962;SDS011;47927;42.646;23.096;2022-12-18T14:33:05;12.73;;;6.03;;
61962;SDS011;47927;42.646;23.096;2022-12-18T14:35:34;10.23;;;5.38;;
61962;SDS011;47927;42.646;23.096;2022-12-18T14:40:43;10.98;;;5.25;;
61962;SDS011;47927;42.646;23.096;2022-12-18T14:43:12;14.82;;;5.95;;
61962;SDS011;47927;42.646;23.096;2022-12-18T14:45:39;8.45;;;4.25;;
61962;SDS011;47927;42.646;23.096;2022-12-18T14:48:08;10.93;;;5.45;;
61962;SDS011;47927;42.646;23.096;2022-12-18T14:50:39;10.60;;;4.93;;
61962;SDS011;47927;42.646;23.096;2022-12-18T14:53:04;10.05;;;5.13;;
61962;SDS011;47927;42.646;23.096;2022-12-18T14:55:30;10.20;;;5.32;;
61962;SDS011;47927;42.646;23.096;2022-12-18T14:57:55;10.07;;;5.45;;
61962;SDS011;47927;42.646;23.096;2022-12-18T15:00:23;9.60;;;4.93;;
61962;SDS011;47927;42.646;23.096;2022-12-18T15:02:52;9.48;;;5.18;;
61962;SDS011;47927;42.646;23.096;2022-12-18T15:05:20;11.18;;;5.45;;
61962;SDS011;47927;42.646;23.096;2022-12-18T15:07:57;11.68;;;5.28;;
61962;SDS011;47927;42.646;23.096;2022-12-18T15:10:29;14.15;;;5.45;;
61962;SDS011;47927;42.646;23.096;2022-12-18T15:17:59;11.38;;;4.65;;
61962;SDS011;47927;42.646;23.096;2022-12-18T15:20:25;10.52;;;4.60;;
61962;SDS011;47927;42.646;23.096;2022-12-18T15:22:51;12.05;;;5.13;;
61962;SDS011;47927;42.646;23.096;2022-12-18T15:25:22;21.00;;;8.98;;
61962;SDS011;47927;42.646;23.096;2022-12-18T15:27:56;32.22;;;11.85;;
61962;SDS011;47927;42.646;23.096;2022-12-18T15:30:23;22.58;;;9.40;;
61962;SDS011;47927;42.646;23.096;2022-12-18T15:32:50;19.75;;;8.80;;
61962;SDS011;47927;42.646;23.096;2022-12-18T15:35:19;14.57;;;7.18;;
61962;SDS011;47927;42.646;23.096;2022-12-18T15:37:51;13.00;;;5.75;;
61962;SDS011;47927;42.646;23.096;2022-12-18T15:40:21;13.57;;;6.30;;
61962;SDS011;47927;42.646;23.096;2022-12-18T15:42:50;10.98;;;5.85;;
61962;SDS011;47927;42.646;23.096;2022-12-18T15:45:37;11.98;;;5.28;;
61962;SDS011;47927;42.646;23.096;2022-12-18T15:48:04;12.65;;;5.20;;
61962;SDS011;47927;42.646;23.096;2022-12-18T15:50:40;11.43;;;5.30;;
61962;SDS011;47927;42.646;23.096;2022-12-18T15:53:05;12.35;;;5.10;;
61962;SDS011;47927;42.646;23.096;2022-12-18T15:55:33;12.00;;;5.22;;
61962;SDS011;47927;42.646;23.096;2022-12-18T15:58:17;8.75;;;4.68;;
61962;SDS011;47927;42.646;23.096;2022-12-18T16:00:45;10.63;;;4.75;;
61962;SDS011;47927;42.646;23.096;2022-12-18T16:03:10;10.50;;;4.18;;
61962;SDS011;47927;42.646;23.096;2022-12-18T16:05:36;11.00;;;5.22;;
61962;SDS011;47927;42.646;23.096;2022-12-18T16:08:01;11.25;;;4.80;;
61962;SDS011;47927;42.646;23.096;2022-12-18T16:10:27;8.95;;;4.55;;
61962;SDS011;47927;42.646;23.096;2022-12-18T16:12:53;11.45;;;5.05;;
61962;SDS011;47927;42.646;23.096;2022-12-18T16:15:19;9.82;;;4.50;;
61962;SDS011;47927;42.646;23.096;2022-12-18T16:17:45;9.65;;;4.28;;
61962;SDS011;47927;42.646;23.096;2022-12-18T16:20:15;10.48;;;4.82;;
61962;SDS011;47927;42.646;23.096;2022-12-18T16:22:43;9.07;;;4.80;;
61962;SDS011;47927;42.646;23.096;2022-12-18T16:25:21;9.18;;;5.10;;
61962;SDS011;47927;42.646;23.096;2022-12-18T16:27:47;8.25;;;4.10;;
61962;SDS011;47927;42.646;23.096;2022-12-18T16:30:14;10.30;;;4.95;;
61962;SDS011;47927;42.646;23.096;2022-12-18T16:32:47;10.80;;;4.90;;
61962;SDS011;47927;42.646;23.096;2022-12-18T16:35:13;9.57;;;4.70;;
61962;SDS011;47927;42.646;23.096;2022-12-18T16:37:40;8.48;;;4.22;;
61962;SDS011;47927;42.646;23.096;2022-12-18T16:40:10;9.55;;;4.20;;
61962;SDS011;47927;42.646;23.096;2022-12-18T16:42:38;10.93;;;4.20;;
61962;SDS011;47927;42.646;23.096;2022-12-18T16:45:06;11.13;;;4.57;;
61962;SDS011;47927;42.646;23.096;2022-12-18T16:47:39;10.73;;;4.57;;
61962;SDS011;47927;42.646;23.096;2022-12-18T16:50:05;11.15;;;5.18;;
61962;SDS011;47927;42.646;23.096;2022-12-18T16:52:32;10.35;;;5.20;;
61962;SDS011;47927;42.646;23.096;2022-12-18T16:54:58;11.02;;;4.78;;
61962;SDS011;47927;42.646;23.096;2022-12-18T16:57:24;9.10;;;4.22;;
61962;SDS011;47927;42.646;23.096;2022-12-18T16:59:50;8.35;;;4.10;;
61962;SDS011;47927;42.646;23.096;2022-12-18T17:04:45;11.60;;;5.55;;
61962;SDS011;47927;42.646;23.096;2022-12-18T17:07:11;9.70;;;4.53;;
61962;SDS011;47927;42.646;23.096;2022-12-18T17:09:37;7.30;;;3.92;;
61962;SDS011;47927;42.646;23.096;2022-12-18T17:12:04;13.55;;;5.80;;
61962;SDS011;47927;42.646;23.096;2022-12-18T17:14:30;9.82;;;4.95;;
61962;SDS011;47927;42.646;23.096;2022-12-18T17:16:56;8.18;;;4.35;;
61962;SDS011;47927;42.646;23.096;2022-12-18T17:19:24;8.38;;;3.70;;
61962;SDS011;47927;42.646;23.096;2022-12-18T17:21:51;10.93;;;4.40;;